Aplicació Alertes

Dades de l'estació automàtica Cabrils

?
?
Resum diari 23:00 TU
Dades diàries de l'estació meteorològica
Temperatura mitjana 15.9 °C
Temperatura màxima 21.5 °C 14:47 TU
Temperatura mínima 11.7 °C 2:32 TU
Humitat relativa mitjana 58%
Precipitació acumulada 0.0 mm
Ratxa màxima del vent (10 m) 56.2 km/h - 314º 8:23 TU
Pressió atmosfèrica mitjana 1017.5 hPa
Irradiació solar global 7.9 MJ/m2

El tram horari està expressat en Temps Universal (TU). Cal sumar una hora en horari d'hivern i dues en horari d'estiu per passar a l'hora oficial.

Cabrils

Metadades estació meteorol´gica
Municipi Cabrils
Comarca Maresme
Altitud 81 m
Data alta 27.11.1995
Estat actual Operativa
Dades de període
Període
TU
TM
°C
TX
°C
TN
°C
HRM
%
PPT
mm
VVM (10 m)
km/h
DVM (10 m)
graus
VVX (10 m)
km/h
PM
hPa
RS
W/m2
00:00 - 00:30 12.4 13.0 12.0 63 0.0 5.4 113 15.5 1015.1 0
00:30 - 01:00 12.8 14.0 11.7 63 0.0 6.5 322 21.6 1014.9 0
01:00 - 01:30 13.8 14.3 13.5 59 0.0 7.6 99 27.0 1014.8 0
01:30 - 02:00 14.1 14.4 13.6 59 0.0 10.4 335 32.0 1014.8 0
02:00 - 02:30 13.0 14.3 11.9 64 0.0 4.0 68 10.8 1015.2 0
02:30 - 03:00 13.3 14.1 11.7 62 0.0 5.8 106 16.6 1015.0 0
03:00 - 03:30 14.4 14.8 14.0 58 0.0 7.9 26 23.4 1015.2 0
03:30 - 04:00 13.9 14.6 13.2 61 0.0 5.4 120 15.1 1015.6 0
04:00 - 04:30 13.2 13.9 12.5 64 0.0 5.0 168 20.5 1015.7 0
04:30 - 05:00 14.5 14.8 13.9 58 0.0 7.2 326 22.0 1015.6 0
05:00 - 05:30 14.6 14.7 14.5 58 0.0 20.9 323 39.6 1015.4 0
05:30 - 06:00 14.8 15.0 14.7 57 0.0 16.6 318 36.7 1015.6 0
06:00 - 06:30 14.9 15.0 14.8 56 0.0 15.8 319 32.8 1015.7 0
06:30 - 07:00 14.9 15.0 14.7 57 0.0 24.1 325 42.8 1015.9 0
07:00 - 07:30 14.7 15.0 14.5 58 0.0 25.2 324 46.8 1016.1 11
07:30 - 08:00 14.9 15.2 14.5 58 0.0 31.0 319 53.3 1016.3 41
08:00 - 08:30 14.5 14.7 14.3 60 0.0 33.1 318 56.2 1016.7 39
08:30 - 09:00 14.7 14.9 14.5 59 0.0 31.7 319 52.2 1017.2 52
09:00 - 09:30 15.2 15.4 14.9 56 0.0 27.7 324 48.6 1017.6 74
09:30 - 10:00 15.2 15.3 15.1 57 0.0 29.2 320 48.6 1017.9 107
10:00 - 10:30 15.5 15.7 15.3 56 0.0 27.0 319 44.3 1018.1 161
10:30 - 11:00 15.3 15.7 15.0 58 0.0 25.6 328 40.3 1018.1 214
11:00 - 11:30 15.8 16.0 15.7 58 0.0 24.5 327 40.3 1018.1 294
11:30 - 12:00 16.4 17.0 16.0 56 0.0 20.2 323 41.0 1018.1 338
12:00 - 12:30 17.2 18.1 16.7 53 0.0 21.6 323 37.8 1017.9 414
12:30 - 13:00 18.6 19.5 18.1 50 0.0 23.4 313 39.6 1017.7 498
13:00 - 13:30 19.5 19.9 19.2 47 0.0 22.3 317 36.0 1017.5 477
13:30 - 14:00 19.9 20.7 19.3 46 0.0 23.4 310 40.7 1017.7 539
14:00 - 14:30 21.0 21.3 20.6 43 0.0 19.8 315 35.3 1017.5 457
14:30 - 15:00 21.3 21.5 21.0 42 0.0 15.8 315 27.7 1017.7 302
15:00 - 15:30 20.7 21.0 20.6 43 0.0 17.6 301 31.3 1017.9 218
15:30 - 16:00 20.5 20.6 20.3 46 0.0 20.5 307 34.9 1018.0 155
16:00 - 16:30 19.7 20.2 19.3 51 0.0 18.4 315 32.4 1018.0 63
16:30 - 17:00 18.6 19.3 17.8 54 0.0 5.0 84 15.1 1018.6 7
17:00 - 17:30 16.4 18.0 15.1 63 0.0 2.5 356 7.2 1018.8 0
17:30 - 18:00 14.8 15.1 14.3 71 0.0 4.3 5 20.5 1019.2 0
18:00 - 18:30 13.6 14.3 13.3 76 0.0 5.8 335 10.8 1019.4 0
18:30 - 19:00 13.8 14.0 13.8 75 0.0 7.9 325 11.9 1019.4 0
19:00 - 19:30 16.2 17.6 14.0 62 0.0 10.1 307 23.0 1019.4 0
19:30 - 20:00 17.2 17.7 16.9 57 0.0 5.4 342 19.4 1019.3 0
20:00 - 20:30 16.5 16.9 15.9 59 0.0 8.6 7 29.5 1019.4 0
20:30 - 21:00 16.4 16.7 15.6 60 0.0 6.5 325 24.1 1019.6 0
21:00 - 21:30 15.8 16.4 15.0 61 0.0 8.6 328 21.2 1019.5 0
21:30 - 22:00 16.4 16.8 16.2 58 0.0 9.4 311 20.2 1019.4 0
22:00 - 22:30 16.4 16.6 16.1 57 0.0 9.0 315 23.0 1019.8 0
22:30 - 23:00 15.7 16.1 14.7 60 0.0 7.2 42 18.7 1020.2 0
23:00 - 23:30 13.3 14.6 12.7 74 0.0 3.2 46 8.3 1020.7 0

Les dades en taronja només han passat un control de qualitat automàtic. Resta pendent la seva validació definitiva.